Burley Municipal Airport
KBYI : now visible

Airfield :











YOU CAN JOIN US ON...

 
LOGIN :

Register | Disclaimer

   EN    FR    IT 

 









Legend :    VFR   Marginal VFR   IFR   Intensive IFR   Very Intensive IFR
Visi :
Ceiling :
>= 8 km
>= 3000ft
5 to 8 km
1000 to 3000 ft
1500m to 5 km
500 to 1000 ft
800 to 1500m
200 to 500 ft
< 800m
< 200 ft
Symbols :   Thunderstorms  Fog  Heavy snow  Heavy precipitations  Wind > 20 kt






- Airport Elevation : 4150 ft


KBYI - Burley Municipal

CURRENT METAR :
  • 171653Z AUTO 00000KT 10SM CLR 04/M03 A3033 RMK AO2 SLP278 T00441028

EXPIRED METARs :
  • 171553Z AUTO 00000KT 10SM CLR 02/M03 A3034 RMK AO2 SLP287 T00221033
  • 171453Z AUTO 14003KT 10SM CLR M03/M06 A3032 RMK AO2 SLP287 T10281056 56002

TAF KBYI
Valid from the 17 at 12:00 until the 18 at 12:00 UTC


171136Z 1712/1812 22006KT P6SM BKN200
FM171800 26007KT P6SM SCT070 BKN200
FM180200 22005KT P6SM FEW200



MET'MAP, your aeronautical weather chart ! - Copyright ORBIFLY December 2007 - Disclaimer

ORBIFLY MET'MAP TEAM :

Programming & Development : Alexandra Zaïnal
Concept & Development : Baudouin d'Aumeries
Co-Development & Prog : Marc-Olivier Méhu
Technical & hardware support : Manuel Goepfert

Contact : metmap@orbifly.com




SOURCES & CREDITS :

   NOAA       Earth
Advisory